This is the latest recevied weather packets stored in our database for station/object WA1OUI. If no packets are shown the sender has not sent any weather packets the latest 10 day(s).
| Time | Temp. | Humidity | Pressure | Rain* | Wind** | Luminosity | Snow |
|---|---|---|---|---|---|---|---|
| 1777503505 | 15.56° C | 56% | 1008.7 hPa | 0 mm | - | 25 W/m² | - |
| 1777503201 | 15.56° C | 54% | 1008.7 hPa | 0 mm | - | 32 W/m² | - |
| 1777502898 | 15.56° C | 53% | 1009 hPa | 0 mm | - | 49 W/m² | - |
| 1777502596 | 15.56° C | 53% | 1008.8 hPa | 0 mm | - | 67 W/m² | - |
| 1777502292 | 15.56° C | 53% | 1009 hPa | 0 mm | - | 69 W/m² | - |
| 1777501989 | 15.56° C | 54% | 1008.9 hPa | 0 mm | - | 64 W/m² | - |
| 1777501686 | 16.11° C | 53% | 1009 hPa | 0 mm | - | 56 W/m² | - |
| 1777501383 | 16.11° C | 54% | 1009 hPa | 0 mm | - | 60 W/m² | - |
| 1777501081 | 16.11° C | 53% | 1009.1 hPa | 0 mm | - | 62 W/m² | - |
| 1777500779 | 16.11° C | 54% | 1009 hPa | 0 mm | - | 56 W/m² | - |
| 1777500476 | 16.11° C | 52% | 1009.3 hPa | 0 mm | - | 56 W/m² | - |
| 1777500171 | 16.67° C | 52% | 1009.4 hPa | 0 mm | - | 67 W/m² | - |
| 1777499869 | 16.67° C | 51% | 1009.5 hPa | 0 mm | - | 79 W/m² | - |
| 1777499564 | 16.67° C | 53% | 1009.5 hPa | 0 mm | - | 82 W/m² | - |
| 1777499263 | 16.67° C | 50% | 1009.8 hPa | 0 mm | - | 86 W/m² | - |
| 1777498960 | 17.22° C | 51% | 1009.4 hPa | 0 mm | - | 95 W/m² | - |
| 1777498656 | 17.22° C | 50% | 1009.4 hPa | 0 mm | - | 102 W/m² | - |
| 1777498352 | 17.22° C | 50% | 1009.3 hPa | 0 mm | - | 110 W/m² | - |
| 1777498050 | 17.22° C | 50% | 1009.2 hPa | 0 mm | - | 120 W/m² | - |
| 1777497746 | 17.22° C | 50% | 1009.3 hPa | 0 mm | - | 116 W/m² | - |
| 1777497444 | 17.22° C | 49% | 1009.4 hPa | 0 mm | - | 112 W/m² | - |
| 1777497139 | 17.22° C | 50% | 1009.4 hPa | 0 mm | - | 108 W/m² | - |
| 1777496836 | 17.22° C | 48% | 1009.6 hPa | 0 mm | - | 107 W/m² | - |
| 1777496533 | 17.78° C | 49% | 1009.6 hPa | 0 mm | - | 114 W/m² | - |
| 1777496229 | 17.78° C | 49% | 1009.6 hPa | 0 mm | - | 120 W/m² | - |
* Rain latest hour (hover to see other rain measurements)
** Current wind speed in m/s (hover to see current wind gust speed)